Flagstaff, AZ

12:34 PM MST on January 26, 2015 (GMT -0700)
Flagstaff Pulliam | Change Station
CLOSE
Current Station
Airport
Location: Flagstaff,
Elevation: 7011 ft
Nearby Weather Stations

Elev 7011 ft 35.14 °N, 111.67 °W | Updated 37 minutes ago

Partly Cloudy
Partly Cloudy
47 °F
Feels Like 47 °F
N
10
Wind Variable Wind from ENE

Today
High -- | Low -- °F
--% Chance of Precip.
Yesterday
High -- | Low -- °F
Precip. -- in
7:29 AM 5:48 PM
Waxing Crescent, 46% visible
Pressure 30.27 in
Visibility 10.0 miles
Clouds Clear
Dew Point 23 °F
Humidity 39%
Rainfall 0.00 in
Snow Depth Not available.
UV 5 out of 12
Pollen 2.80 out of 12
Air Quality Not available.
Flu Activity Not available.
METAR KFLG 261857Z 06009KT 10SM CLR 08/M05 A3035 RMK AO2 SLP249 T00831050

More Conditions Fewer Conditions

Pressure 30.27 in
Visibility 10.0 miles
Clouds Clear
Dew Point 23 °F
Humidity 39%
Rainfall 0.00 in
Snow Depth Not available.
UV 5 out of 12
Pollen 2.80 out of 12
Air Quality Not available.
Flu Activity Not available.
METAR KFLG 261857Z 06009KT 10SM CLR 08/M05 A3035 RMK AO2 SLP249 T00831050

More Conditions Fewer Conditions

10-Day Weather Forecast

Almanac

Astronomy

Jan. 26, 2015 Rise Set
Actual Time
Civil Twilight
Nautical Twilight
Astronomical Twilight
Moon
Length of Visible Light
Length of Day
Tomorrow will be .
, % of the Moon is Illuminated

Today's Extremes

State Highs State Lows

Community

WunderPhotos

Upload Photos

1,790,338 photos uploaded!

WunderBlogs® & News

Nearby

Air Quality

  Air Quality AQ Index Pollutant
Not available.

Snow Depth

Station Depth Elevation

Earthquake Activity

City Distance Mag. Time & Date
Minimum magnitude displayed is 2.5.

Coastal Water Temperatures

Place Temperature

Nearby Weather Stations